This is the latest recevied weather packets stored in our database for station/object IU1INZ-13. If no packets are shown the sender has not sent any weather packets the latest 10 day(s).
| Time | Temp. | Humidity | Pressure | Rain* | Wind** | Luminosity | Snow |
|---|---|---|---|---|---|---|---|
| 1777719639 | 20° C | 48% | 1025.2 hPa | 0 mm | - | - | - |
| 1777718741 | 20° C | 47% | 1025.5 hPa | 0 mm | - | - | - |
| 1777717836 | 19.44° C | 49% | 1025.7 hPa | 0 mm | - | - | - |
| 1777716946 | 18.89° C | 51% | 1025.9 hPa | 0 mm | - | - | - |
| 1777716034 | 19.44° C | 50% | 1026.1 hPa | 0 mm | - | - | - |
| 1777715135 | 18.33° C | 54% | 1026.2 hPa | 0 mm | - | - | - |
| 1777714234 | 17.78° C | 55% | 1026.5 hPa | 0 mm | - | - | - |
| 1777713334 | 17.78° C | 57% | 1026.5 hPa | 0 mm | - | - | - |
| 1777712456 | 17.22° C | 60% | 1026.7 hPa | 0 mm | - | - | - |
| 1777711532 | 17.22° C | 61% | 1026.8 hPa | 0 mm | - | - | - |
| 1777710632 | 17.22° C | 61% | 1026.9 hPa | 0 mm | - | - | - |
| 1777709736 | 16.11° C | 64% | 1027 hPa | 0 mm | - | - | - |
| 1777708844 | 16.11° C | 64% | 1026.9 hPa | 0 mm | - | - | - |
| 1777707934 | 16.11° C | 61% | 1027.1 hPa | 0 mm | - | - | - |
| 1777707036 | 15.56° C | 62% | 1027.1 hPa | 0 mm | - | - | - |
| 1777706134 | 14.44° C | 65% | 1027.1 hPa | 0 mm | - | - | - |
| 1777705253 | 15° C | 65% | 1027.1 hPa | 0 mm | - | - | - |
| 1777704334 | 13.33° C | 74% | 1027.2 hPa | 0 mm | - | - | - |
| 1777703437 | 12.22° C | 76% | 1027.2 hPa | 0 mm | - | - | - |
| 1777702534 | 11.11° C | 80% | 1027.1 hPa | 0 mm | - | - | - |
| 1777701633 | 10° C | 83% | 1027.1 hPa | 0 mm | - | - | - |
| 1777700731 | 8.89° C | 85% | 1027.1 hPa | 0 mm | - | - | - |
| 1777699836 | 8.33° C | 85% | 1027.1 hPa | 0 mm | - | - | - |
| 1777698935 | 7.78° C | 85% | 1027 hPa | 0 mm | - | - | - |
| 1777698035 | 7.78° C | 85% | 1026.9 hPa | 0 mm | - | - | - |
* Rain latest hour (hover to see other rain measurements)
** Current wind speed in m/s (hover to see current wind gust speed)